createdAt,value
2018-02-21T00:01:52.125Z,6.37
2018-02-21T00:04:20.630Z,6.36
2018-02-21T00:06:49.133Z,6.28
2018-02-21T00:09:17.631Z,6.32
2018-02-21T00:11:46.139Z,6.35
2018-02-21T00:14:14.614Z,6.33
2018-02-21T00:16:43.106Z,6.28
2018-02-21T00:19:11.594Z,6.30
2018-02-21T00:21:40.082Z,6.26
2018-02-21T00:24:08.630Z,6.29
2018-02-21T00:26:37.122Z,6.29
2018-02-21T00:29:05.592Z,6.30
2018-02-21T00:31:34.076Z,6.29
2018-02-21T00:34:02.574Z,6.24
2018-02-21T00:36:31.048Z,6.20
2018-02-21T00:38:59.590Z,6.18
2018-02-21T00:41:28.050Z,6.13
2018-02-21T00:43:56.547Z,6.15
2018-02-21T00:46:25.049Z,6.17
2018-02-21T00:48:53.562Z,6.10
2018-02-21T00:51:22.003Z,6.14
2018-02-21T00:53:50.462Z,6.13
2018-02-21T00:56:18.955Z,6.16
2018-02-21T00:58:47.453Z,6.09
2018-02-21T01:01:15.906Z,5.94
2018-02-21T01:03:44.379Z,6.03
2018-02-21T01:06:12.871Z,5.95
2018-02-21T01:08:41.360Z,6.08
2018-02-21T01:11:09.855Z,6.00
2018-02-21T01:13:38.314Z,5.99
2018-02-21T01:16:06.819Z,6.05
2018-02-21T01:18:35.318Z,5.97
2018-02-21T01:21:03.814Z,5.93
2018-02-21T01:23:32.294Z,6.04
2018-02-21T01:26:00.786Z,6.04
2018-02-21T01:28:29.282Z,6.02
2018-02-21T01:30:57.742Z,6.05
2018-02-21T01:33:26.239Z,5.97
2018-02-21T01:35:54.742Z,6.03
2018-02-21T01:38:23.266Z,5.92
2018-02-21T01:40:51.740Z,5.92
2018-02-21T01:43:20.273Z,5.97
2018-02-21T01:45:48.774Z,5.99
2018-02-21T01:48:17.237Z,5.81
2018-02-21T01:50:52.505Z,5.84
2018-02-21T01:53:21.011Z,5.84
2018-02-21T01:55:49.487Z,5.82
2018-02-21T01:58:17.947Z,5.82
2018-02-21T02:00:46.464Z,5.89
2018-02-21T02:03:14.941Z,5.88
2018-02-21T02:05:43.437Z,5.88
2018-02-21T02:08:11.930Z,5.89
2018-02-21T02:10:40.445Z,5.67
2018-02-21T02:13:08.957Z,5.86
2018-02-21T02:15:37.418Z,5.91
2018-02-21T02:18:05.918Z,5.88
2018-02-21T02:20:34.411Z,5.74
2018-02-21T02:23:02.910Z,5.83
2018-02-21T02:25:31.411Z,5.76
2018-02-21T02:27:59.918Z,5.79
2018-02-21T02:30:28.417Z,5.76
2018-02-21T02:32:56.893Z,5.83
2018-02-21T02:35:25.402Z,5.90
2018-02-21T02:37:53.861Z,5.85
2018-02-21T02:40:22.376Z,5.85
2018-02-21T02:42:50.874Z,5.97
2018-02-21T02:45:19.338Z,5.94
2018-02-21T02:47:47.834Z,5.94
2018-02-21T02:50:16.299Z,5.86
2018-02-21T02:52:44.812Z,5.85
2018-02-21T02:55:13.314Z,5.85
2018-02-21T02:57:41.770Z,5.81
2018-02-21T03:00:10.345Z,5.86
2018-02-21T03:02:38.855Z,5.92
2018-02-21T03:05:07.371Z,5.99
2018-02-21T03:07:35.815Z,5.89
2018-02-21T03:10:04.343Z,5.97
2018-02-21T03:12:32.846Z,5.94
2018-02-21T03:15:01.313Z,6.00
2018-02-21T03:17:29.822Z,5.90
2018-02-21T03:19:58.281Z,5.98
2018-02-21T03:22:26.738Z,5.99
2018-02-21T03:24:55.257Z,6.00
2018-02-21T03:27:23.731Z,6.05
2018-02-21T03:29:52.202Z,6.03
2018-02-21T03:32:22.649Z,5.95
2018-02-21T03:34:51.127Z,6.05
2018-02-21T03:37:19.589Z,6.04
2018-02-21T03:39:48.124Z,6.00
2018-02-21T03:42:16.613Z,6.03
2018-02-21T03:44:45.095Z,6.05
2018-02-21T03:47:13.626Z,6.11
2018-02-21T03:49:42.102Z,6.13
2018-02-21T03:52:10.568Z,6.12
2018-02-21T03:54:39.066Z,6.04
2018-02-21T03:57:07.542Z,6.08
2018-02-21T03:59:36.135Z,6.04
2018-02-21T04:02:04.590Z,6.02
2018-02-21T04:04:33.050Z,6.10
2018-02-21T04:07:01.565Z,6.03
2018-02-21T04:09:30.090Z,6.03
2018-02-21T04:11:58.562Z,6.03
2018-02-21T04:14:27.018Z,6.04
2018-02-21T04:16:55.535Z,6.05
2018-02-21T04:19:23.998Z,6.06
2018-02-21T04:21:52.494Z,6.08
2018-02-21T04:24:20.990Z,6.10
2018-02-21T04:26:49.491Z,6.10
2018-02-21T04:29:17.950Z,6.11
2018-02-21T04:31:46.429Z,5.94
2018-02-21T04:34:14.922Z,6.06
2018-02-21T04:36:43.382Z,6.08
2018-02-21T04:39:11.898Z,6.10
2018-02-21T04:41:40.393Z,6.10
2018-02-21T04:44:08.882Z,6.07
2018-02-21T04:46:37.350Z,6.12
2018-02-21T04:49:05.847Z,6.16
2018-02-21T04:51:34.350Z,6.18
2018-02-21T04:54:02.814Z,6.16
2018-02-21T04:56:49.769Z,6.18
2018-02-21T04:59:18.813Z,6.09
2018-02-21T05:01:47.291Z,6.17
2018-02-21T05:04:15.790Z,6.08
2018-02-21T05:06:44.322Z,6.09
2018-02-21T05:09:12.773Z,6.06
2018-02-21T05:11:41.234Z,6.07
2018-02-21T05:14:09.736Z,6.12
2018-02-21T05:16:38.191Z,6.07
2018-02-21T05:19:06.685Z,6.10
2018-02-21T05:21:35.159Z,6.12
2018-02-21T05:24:03.650Z,6.07
2018-02-21T05:26:32.158Z,6.14
2018-02-21T05:29:00.649Z,6.10
2018-02-21T05:31:29.138Z,6.10
2018-02-21T05:33:57.602Z,6.12
2018-02-21T05:36:26.140Z,6.15
2018-02-21T05:38:54.639Z,5.91
2018-02-21T05:41:23.102Z,6.14
2018-02-21T05:43:51.590Z,6.11
2018-02-21T05:46:20.052Z,6.13
2018-02-21T05:48:48.566Z,6.18
2018-02-21T05:51:17.035Z,6.22
2018-02-21T05:53:45.525Z,6.20
2018-02-21T05:56:14.026Z,6.28
2018-02-21T05:58:42.526Z,6.16
2018-02-21T06:01:11.063Z,6.20
2018-02-21T06:03:39.534Z,6.18
2018-02-21T06:06:08.058Z,6.07
2018-02-21T06:08:36.504Z,6.10
2018-02-21T06:11:05.001Z,5.99
2018-02-21T06:13:33.462Z,6.10
2018-02-21T06:16:01.983Z,6.19
2018-02-21T06:18:30.493Z,6.15
2018-02-21T06:20:58.970Z,6.12
2018-02-21T06:23:27.483Z,6.26
2018-02-21T06:25:55.983Z,6.26
2018-02-21T06:28:24.461Z,6.30
2018-02-21T06:30:52.993Z,6.34
2018-02-21T06:33:21.518Z,6.29
2018-02-21T06:35:50.007Z,6.33
2018-02-21T06:38:18.507Z,6.27
2018-02-21T06:40:46.978Z,6.44
2018-02-21T06:43:15.464Z,6.47
2018-02-21T06:45:43.966Z,6.52
2018-02-21T06:48:12.452Z,6.54
2018-02-21T06:50:41.007Z,6.54
2018-02-21T06:53:09.483Z,6.57
2018-02-21T06:55:38.010Z,6.63
2018-02-21T06:58:06.491Z,6.59
2018-02-21T07:00:34.997Z,6.53
2018-02-21T07:03:03.458Z,6.76
2018-02-21T07:05:32.202Z,6.71
2018-02-21T07:08:00.748Z,6.77
2018-02-21T07:10:29.209Z,6.72
2018-02-21T07:12:57.710Z,6.82
2018-02-21T07:15:26.265Z,6.77
2018-02-21T07:17:54.717Z,6.79
2018-02-21T07:20:23.229Z,6.90
2018-02-21T07:22:51.709Z,6.94
2018-02-21T07:25:20.214Z,6.99
2018-02-21T07:27:48.677Z,6.99
2018-02-21T07:30:17.169Z,7.04
2018-02-21T07:32:45.666Z,7.00
2018-02-21T07:35:14.127Z,7.10
2018-02-21T07:37:42.630Z,7.10
2018-02-21T07:40:11.186Z,6.94
2018-02-21T07:42:39.691Z,6.98
2018-02-21T07:45:08.233Z,7.04
2018-02-21T07:47:36.726Z,6.99
2018-02-21T07:50:05.218Z,7.03
2018-02-21T07:52:33.739Z,7.00
2018-02-21T07:55:02.240Z,7.00
2018-02-21T07:57:30.790Z,6.65
2018-02-21T07:59:59.265Z,6.90
2018-02-21T08:02:27.739Z,7.06
2018-02-21T08:04:56.246Z,7.15
2018-02-21T08:07:24.751Z,7.16
2018-02-21T08:09:53.256Z,7.27
2018-02-21T08:12:21.714Z,7.27
2018-02-21T08:14:50.229Z,7.26
2018-02-21T08:17:18.742Z,7.22
2018-02-21T08:19:47.210Z,7.21
2018-02-21T08:22:15.898Z,7.29
2018-02-21T08:24:44.446Z,7.40
2018-02-21T08:27:12.955Z,7.44
2018-02-21T08:29:41.414Z,7.44
2018-02-21T08:32:09.914Z,7.48
2018-02-21T08:34:38.408Z,7.41
2018-02-21T08:37:06.931Z,7.57
2018-02-21T08:39:35.444Z,7.52
2018-02-21T08:42:03.912Z,7.70
2018-02-21T08:44:32.438Z,7.70
2018-02-21T08:47:00.944Z,7.77
2018-02-21T08:49:29.447Z,7.80
2018-02-21T08:51:57.950Z,7.76
2018-02-21T08:54:26.465Z,7.65
2018-02-21T08:56:54.938Z,7.64
2018-02-21T08:59:23.450Z,7.70
2018-02-21T09:01:51.930Z,7.68
2018-02-21T09:04:20.451Z,7.83
2018-02-21T09:06:48.961Z,7.65
2018-02-21T09:09:17.435Z,7.62
2018-02-21T09:11:45.910Z,7.80
2018-02-21T09:14:14.346Z,7.86
2018-02-21T09:16:42.921Z,8.01
2018-02-21T09:19:11.411Z,8.05
2018-02-21T09:21:39.919Z,8.01
2018-02-21T09:24:08.380Z,8.23
2018-02-21T09:26:36.841Z,8.32
2018-02-21T09:29:05.326Z,8.36
2018-02-21T09:31:33.793Z,8.30
2018-02-21T09:34:02.307Z,8.23
2018-02-21T09:36:30.804Z,8.38
2018-02-21T09:38:59.268Z,8.27
2018-02-21T09:41:27.767Z,8.27
2018-02-21T09:43:56.274Z,8.06
2018-02-21T09:46:24.814Z,8.26
2018-02-21T09:48:53.259Z,8.23
2018-02-21T09:51:21.789Z,8.31
2018-02-21T09:53:50.249Z,8.34
2018-02-21T09:56:18.714Z,8.19
2018-02-21T09:58:47.178Z,8.24
2018-02-21T10:01:15.736Z,8.37
2018-02-21T10:03:44.207Z,8.46
2018-02-21T10:06:12.713Z,8.47
2018-02-21T10:08:41.210Z,8.21
2018-02-21T10:11:09.671Z,8.34
2018-02-21T10:13:38.193Z,8.47
2018-02-21T10:16:06.666Z,8.46
2018-02-21T10:18:35.165Z,8.53
2018-02-21T10:21:03.663Z,8.56
2018-02-21T10:23:32.125Z,8.59
2018-02-21T10:26:00.636Z,8.66
2018-02-21T10:28:29.096Z,8.63
2018-02-21T10:30:57.575Z,8.71
2018-02-21T10:33:26.082Z,8.64
2018-02-21T10:35:54.571Z,8.68
2018-02-21T10:38:23.085Z,8.64
2018-02-21T10:40:51.550Z,8.82
2018-02-21T10:43:20.046Z,8.90
2018-02-21T10:45:48.548Z,8.89
2018-02-21T10:48:17.012Z,9.00
2018-02-21T10:50:45.790Z,8.97
2018-02-21T10:53:14.250Z,9.01
2018-02-21T10:55:42.758Z,9.12
2018-02-21T10:58:12.110Z,9.02
2018-02-21T11:00:46.187Z,9.07
2018-02-21T11:03:14.658Z,8.84
2018-02-21T11:05:43.165Z,8.67
2018-02-21T11:08:11.688Z,8.90
2018-02-21T11:10:40.217Z,8.61
2018-02-21T11:13:08.681Z,8.73
2018-02-21T11:15:37.147Z,8.83
2018-02-21T11:18:05.639Z,8.84
2018-02-21T11:20:34.104Z,8.81
2018-02-21T11:23:02.629Z,8.68
2018-02-21T11:25:31.101Z,8.64
2018-02-21T11:27:59.921Z,8.54
2018-02-21T11:30:28.384Z,8.50
2018-02-21T11:32:56.922Z,8.56
2018-02-21T11:35:25.444Z,8.53
2018-02-21T11:37:53.990Z,8.49
2018-02-21T11:40:22.464Z,8.46
2018-02-21T11:42:50.970Z,8.38
2018-02-21T11:45:19.466Z,8.29
2018-02-21T11:47:47.923Z,8.04
2018-02-21T11:50:16.422Z,8.23
2018-02-21T11:52:44.918Z,8.28
2018-02-21T11:55:13.382Z,8.32
2018-02-21T11:57:41.884Z,8.26
2018-02-21T12:00:10.418Z,8.40
2018-02-21T12:02:38.987Z,8.27
2018-02-21T12:05:07.493Z,8.43
2018-02-21T12:07:35.993Z,8.26
2018-02-21T12:10:04.498Z,8.23
2018-02-21T12:12:33.065Z,8.28
2018-02-21T12:15:01.567Z,8.32
2018-02-21T12:17:30.076Z,8.31
2018-02-21T12:19:58.575Z,8.14
2018-02-21T12:22:27.045Z,8.05
2018-02-21T12:24:55.556Z,8.17
2018-02-21T12:27:24.028Z,8.29
2018-02-21T12:29:52.538Z,8.24
2018-02-21T12:32:24.392Z,8.23
2018-02-21T12:34:52.912Z,8.16
2018-02-21T12:37:21.379Z,8.20
2018-02-21T12:39:49.918Z,8.11
2018-02-21T12:42:18.401Z,7.99
2018-02-21T12:44:46.884Z,8.09
2018-02-21T12:47:15.363Z,8.09
2018-02-21T12:49:43.867Z,7.98
2018-02-21T12:52:12.334Z,8.02
2018-02-21T12:54:40.872Z,7.75
2018-02-21T12:57:09.367Z,7.87
2018-02-21T12:59:37.842Z,7.94
2018-02-21T13:02:06.310Z,7.97
2018-02-21T13:04:34.814Z,7.91
2018-02-21T13:07:03.327Z,8.03
2018-02-21T13:09:31.822Z,8.01
2018-02-21T13:12:00.296Z,8.13
2018-02-21T13:14:28.838Z,8.18
2018-02-21T13:16:57.309Z,8.16
2018-02-21T13:19:25.811Z,8.15
2018-02-21T13:21:54.260Z,8.22
2018-02-21T13:24:22.754Z,8.10
2018-02-21T13:26:51.231Z,8.11
2018-02-21T13:29:19.695Z,8.07
2018-02-21T13:31:48.197Z,8.05
2018-02-21T13:34:16.664Z,8.11
2018-02-21T13:36:45.163Z,8.12
2018-02-21T13:39:13.676Z,8.08
2018-02-21T13:41:42.166Z,8.12
2018-02-21T13:44:10.638Z,8.14
2018-02-21T13:46:39.122Z,7.94
2018-02-21T13:49:07.635Z,7.89
2018-02-21T13:51:36.098Z,7.91
2018-02-21T13:54:04.614Z,7.95
2018-02-21T13:56:33.114Z,7.93
2018-02-21T13:59:01.614Z,8.06
2018-02-21T14:01:30.076Z,8.09
2018-02-21T14:03:58.586Z,7.97
2018-02-21T14:06:27.046Z,8.03
2018-02-21T14:08:55.514Z,7.78
2018-02-21T14:11:23.999Z,7.92
2018-02-21T14:13:52.461Z,7.90
2018-02-21T14:16:20.970Z,7.89
2018-02-21T14:18:49.437Z,7.88
2018-02-21T14:21:17.978Z,7.84
2018-02-21T14:23:46.439Z,7.86
2018-02-21T14:26:14.967Z,7.91
2018-02-21T14:28:43.490Z,7.96
2018-02-21T14:31:12.009Z,7.94
2018-02-21T14:33:40.510Z,7.84
2018-02-21T14:36:08.974Z,7.90
2018-02-21T14:38:37.468Z,7.92
2018-02-21T14:41:05.920Z,7.85
2018-02-21T14:43:34.434Z,7.85
2018-02-21T14:46:02.936Z,7.99
2018-02-21T14:48:31.410Z,7.85
2018-02-21T14:50:59.906Z,7.85
2018-02-21T14:53:28.414Z,7.91
2018-02-21T14:55:56.937Z,7.85
2018-02-21T14:58:25.449Z,7.60
2018-02-21T15:00:53.928Z,7.47
2018-02-21T15:03:22.418Z,7.68
2018-02-21T15:05:50.891Z,7.72
2018-02-21T15:08:19.394Z,7.66
2018-02-21T15:10:47.886Z,7.57
2018-02-21T15:13:16.380Z,7.69
2018-02-21T15:15:44.846Z,7.58
2018-02-21T15:18:13.357Z,7.70
2018-02-21T15:20:41.898Z,7.73
2018-02-21T15:23:10.351Z,7.74
2018-02-21T15:25:38.814Z,7.71
2018-02-21T15:28:07.362Z,7.65
2018-02-21T15:30:35.838Z,7.68
2018-02-21T15:33:04.337Z,7.21
2018-02-21T15:35:32.790Z,7.78
2018-02-21T15:38:01.286Z,7.73
2018-02-21T15:40:29.814Z,7.68
2018-02-21T15:42:58.318Z,7.71
2018-02-21T15:45:26.777Z,7.77
2018-02-21T15:47:55.267Z,7.77
2018-02-21T15:50:23.783Z,7.77
2018-02-21T15:52:52.277Z,7.70
2018-02-21T15:55:20.733Z,7.61
2018-02-21T15:57:49.230Z,7.75
2018-02-21T16:00:17.686Z,7.70
2018-02-21T16:02:46.187Z,7.75
2018-02-21T16:05:14.651Z,7.65
2018-02-21T16:07:43.158Z,7.59
2018-02-21T16:10:11.623Z,7.59
2018-02-21T16:12:40.097Z,7.51
2018-02-21T16:15:08.606Z,7.52
2018-02-21T16:17:37.082Z,7.56
2018-02-21T16:20:05.543Z,7.53
2018-02-21T16:22:34.086Z,7.40
2018-02-21T16:25:02.556Z,7.39
2018-02-21T16:27:31.054Z,7.43
2018-02-21T16:29:59.524Z,7.44
2018-02-21T16:32:28.042Z,7.43
2018-02-21T16:34:56.534Z,7.42
2018-02-21T16:37:25.039Z,7.41
2018-02-21T16:39:53.498Z,7.21
2018-02-21T16:42:21.956Z,7.39
2018-02-21T16:44:50.453Z,7.35
2018-02-21T16:47:18.911Z,7.47
2018-02-21T16:49:47.366Z,7.44
2018-02-21T16:52:15.855Z,7.46
2018-02-21T16:54:44.314Z,7.32
2018-02-21T16:57:12.824Z,7.34
2018-02-21T16:59:41.281Z,7.46
2018-02-21T17:02:09.762Z,7.41
2018-02-21T17:04:38.266Z,7.46
2018-02-21T17:07:06.762Z,7.29
2018-02-21T17:09:35.228Z,7.43
2018-02-21T17:12:03.737Z,7.39
2018-02-21T17:14:32.193Z,7.47
2018-02-21T17:17:00.671Z,7.46
2018-02-21T17:19:29.170Z,7.52
2018-02-21T17:21:57.647Z,7.52
2018-02-21T17:24:26.155Z,7.45
2018-02-21T17:26:54.626Z,7.47
2018-02-21T17:29:23.122Z,7.48
2018-02-21T17:31:51.665Z,7.50
2018-02-21T17:34:20.125Z,7.46
2018-02-21T17:36:48.607Z,7.48
2018-02-21T17:39:17.101Z,7.46
2018-02-21T17:41:45.566Z,7.52
2018-02-21T17:44:14.057Z,7.40
2018-02-21T17:46:42.549Z,7.51
2018-02-21T17:49:11.045Z,7.52
2018-02-21T17:51:39.506Z,7.47
2018-02-21T17:54:08.010Z,7.49
2018-02-21T17:56:36.512Z,7.52
2018-02-21T17:59:05.008Z,7.56
2018-02-21T18:01:33.465Z,7.46
2018-02-21T18:04:01.961Z,7.53
2018-02-21T18:06:30.421Z,7.57
2018-02-21T18:08:58.929Z,7.60
2018-02-21T18:11:27.386Z,7.63
2018-02-21T18:13:55.893Z,7.66
2018-02-21T18:16:24.412Z,7.68
2018-02-21T18:18:52.892Z,7.67
2018-02-21T18:21:26.845Z,7.68
2018-02-21T18:23:55.307Z,7.68
2018-02-21T18:26:23.794Z,7.69
2018-02-21T18:28:52.293Z,7.65
2018-02-21T18:31:20.807Z,7.69
2018-02-21T18:33:49.263Z,7.73
2018-02-21T18:36:17.783Z,7.62
2018-02-21T18:38:46.282Z,7.57
2018-02-21T18:41:14.734Z,7.68
2018-02-21T18:43:43.226Z,7.71
2018-02-21T18:46:11.694Z,7.73
2018-02-21T18:48:40.189Z,7.65
2018-02-21T18:51:08.694Z,7.72
2018-02-21T18:53:37.233Z,7.63
2018-02-21T18:56:05.730Z,7.70
2018-02-21T18:58:34.226Z,7.66
2018-02-21T19:01:03.668Z,7.66
2018-02-21T19:03:32.206Z,7.67
2018-02-21T19:06:00.715Z,7.68
2018-02-21T19:08:29.214Z,7.67
2018-02-21T19:10:57.719Z,7.66
2018-02-21T19:13:26.182Z,7.64
2018-02-21T19:15:54.641Z,7.61
2018-02-21T19:18:23.141Z,7.60
2018-02-21T19:20:51.624Z,7.60
2018-02-21T19:23:20.122Z,7.53
2018-02-21T19:25:48.614Z,7.56
2018-02-21T19:28:17.117Z,7.62
2018-02-21T19:30:45.570Z,7.61
2018-02-21T19:33:14.046Z,7.53
2018-02-21T19:35:42.554Z,7.53
2018-02-21T19:38:11.015Z,7.44
2018-02-21T19:40:39.527Z,7.48
2018-02-21T19:43:08.032Z,7.44
2018-02-21T19:45:36.499Z,7.42
2018-02-21T19:48:04.986Z,7.44
2018-02-21T19:50:34.377Z,7.41
2018-02-21T19:53:02.837Z,7.38
2018-02-21T19:55:31.329Z,7.39
2018-02-21T19:57:59.833Z,7.33
2018-02-21T20:00:28.285Z,7.40
2018-02-21T20:02:56.748Z,7.42
2018-02-21T20:05:25.251Z,7.43
2018-02-21T20:07:53.745Z,7.51
2018-02-21T20:10:22.241Z,7.59
2018-02-21T20:12:50.750Z,7.62
2018-02-21T20:15:19.269Z,7.66
2018-02-21T20:17:47.726Z,7.70
2018-02-21T20:20:16.186Z,7.75
2018-02-21T20:22:44.690Z,7.73
2018-02-21T20:25:13.160Z,7.72
2018-02-21T20:27:41.668Z,7.73
2018-02-21T20:30:10.178Z,7.68
2018-02-21T20:32:38.652Z,7.75
2018-02-21T20:35:07.154Z,7.78
2018-02-21T20:37:35.646Z,7.76
2018-02-21T20:40:04.106Z,7.80
2018-02-21T20:42:32.593Z,7.79
2018-02-21T20:45:01.068Z,7.82
2018-02-21T20:47:29.569Z,7.80
2018-02-21T20:49:58.083Z,7.69
2018-02-21T20:52:26.547Z,7.72
2018-02-21T20:54:55.050Z,7.75
2018-02-21T20:57:23.524Z,7.75
2018-02-21T20:59:52.027Z,7.67
2018-02-21T21:02:20.503Z,7.71
2018-02-21T21:04:49.046Z,7.62
2018-02-21T21:07:17.556Z,7.71
2018-02-21T21:09:46.062Z,7.70
2018-02-21T21:12:14.557Z,7.66
2018-02-21T21:14:43.063Z,7.65
2018-02-21T21:17:11.565Z,7.63
2018-02-21T21:19:40.029Z,7.64
2018-02-21T21:22:08.526Z,7.63
2018-02-21T21:24:37.010Z,7.61
2018-02-21T21:27:05.506Z,7.59
2018-02-21T21:29:33.970Z,7.56
2018-02-21T21:32:02.475Z,7.59
2018-02-21T21:34:30.958Z,7.44
2018-02-21T21:36:59.466Z,7.56
2018-02-21T21:39:27.927Z,7.52
2018-02-21T21:41:56.403Z,7.63
2018-02-21T21:44:24.897Z,7.60
2018-02-21T21:46:53.389Z,7.67
2018-02-21T21:49:21.907Z,7.70
2018-02-21T21:51:50.371Z,7.61
2018-02-21T21:54:18.869Z,7.57
2018-02-21T21:56:47.325Z,7.63
2018-02-21T21:59:15.894Z,7.64
2018-02-21T22:01:44.335Z,7.70
2018-02-21T22:04:12.859Z,7.72
2018-02-21T22:06:41.322Z,7.70
2018-02-21T22:09:09.792Z,7.71
2018-02-21T22:11:38.302Z,7.64
2018-02-21T22:14:06.779Z,7.68
2018-02-21T22:16:35.278Z,7.61
2018-02-21T22:19:03.770Z,7.68
2018-02-21T22:21:32.234Z,7.66
2018-02-21T22:24:00.774Z,7.68
2018-02-21T22:26:29.266Z,7.64
2018-02-21T22:28:57.774Z,7.66
2018-02-21T22:31:26.285Z,7.65
2018-02-21T22:33:54.746Z,7.67
2018-02-21T22:36:23.246Z,7.66
2018-02-21T22:38:51.705Z,7.66
2018-02-21T22:41:20.194Z,7.68
2018-02-21T22:43:48.654Z,7.67
2018-02-21T22:46:17.150Z,7.68
2018-02-21T22:48:45.645Z,7.54
2018-02-21T22:51:14.102Z,7.63
2018-02-21T22:53:42.561Z,7.69
2018-02-21T22:56:11.066Z,7.56
2018-02-21T22:58:39.580Z,7.67
2018-02-21T23:01:08.039Z,7.66
2018-02-21T23:03:36.522Z,7.65
2018-02-21T23:06:05.022Z,7.64
2018-02-21T23:08:33.510Z,7.68
2018-02-21T23:11:02.023Z,7.50
2018-02-21T23:13:30.478Z,7.63
2018-02-21T23:15:58.982Z,7.52
2018-02-21T23:18:27.458Z,7.68
2018-02-21T23:20:55.951Z,7.62
2018-02-21T23:23:24.401Z,7.61
2018-02-21T23:25:53.781Z,7.61
2018-02-21T23:28:22.236Z,7.61
2018-02-21T23:30:50.744Z,7.63
2018-02-21T23:33:19.206Z,7.58
2018-02-21T23:35:47.682Z,7.59
2018-02-21T23:38:16.137Z,7.58
2018-02-21T23:40:44.619Z,7.61
2018-02-21T23:43:13.118Z,7.61
2018-02-21T23:45:41.589Z,7.62
2018-02-21T23:48:10.073Z,7.48
2018-02-21T23:50:38.571Z,7.51
2018-02-21T23:53:07.033Z,7.58
2018-02-21T23:55:35.522Z,7.47
2018-02-21T23:58:03.982Z,7.54
